Carnival Liberty — HPYE — position and weather

sailwx.info

Track history (hours):
 
Tides and Currents Weather Stations Pressure Air Temp Water Temp Dewpoint Dewpoint Depression Visibility Wind Speed Wind Dir Waves Ship Positions

Carnival Liberty

Last reported at 2016-May-02 23:33 UTC. Time now 2016-May-05 08:30 UTC.
Position N 29°21' W 094°45'.

Type: Ship. MMSI: 371083000.

Date/timePositionNaut miles runAvg speedWind from/ knotsBaromVisibWave heightAir tempDewpointWater temp
2016-May-02 23:33N 29°21' W 094°45'2 0.2
2016-May-02 14:31N 29°19' W 094°47'67217.2
2016-Apr-30 23:31N 20°42' W 086°53'1515.2
2016-Apr-30 22:33N 20°29' W 086°60'1 1.3
2016-Apr-30 21:33N 20°29' W 086°59'0 0.0
2016-Apr-30 20:33N 20°29' W 086°59'0 0.0
2016-Apr-30 19:32N 20°29' W 086°59'0 0.0
2016-Apr-30 18:32N 20°29' W 086°59'0 0.0
2016-Apr-30 17:31N 20°29' W 086°59'0 0.0
2016-Apr-30 16:31N 20°29' W 086°59'0 0.0
2016-Apr-30 15:31N 20°29' W 086°59'0 0.0
2016-Apr-30 14:33N 20°29' W 086°59'4 4.2
2016-Apr-30 13:33N 20°33' W 086°60'1615.2
2016-Apr-30 12:30N 20°46' W 086°50'48617.3
2016-Apr-29 08:22N 27°19' W 092°03'3419.0
2016-Apr-29 06:33N 27°45' W 092°28'5717.6
2016-Apr-29 03:20N 28°25' W 093°14'1418.5
2016-Apr-29 02:33N 28°33' W 093°27'2018.3
2016-Apr-29 01:28N 28°45' W 093°46'1718.3
2016-Apr-29 00:32N 28°55' W 094°01'2117.7
2016-Apr-28 23:19N 29°07' W 094°22'1416.6
2016-Apr-28 22:29N 29°15' W 094°35'1112.1
2016-Apr-28 21:33N 29°20' W 094°46'2 1.4
2016-Apr-28 20:10N 29°19' W 094°48'0 0.0
2016-Apr-28 19:25N 29°19' W 094°48'0 0.0
2016-Apr-28 17:30N 29°19' W 094°48'0 0.0
2016-Apr-28 16:33N 29°19' W 094°48'0 0.0
2016-Apr-28 15:32N 29°19' W 094°48'0 0.0
2016-Apr-28 14:32N 29°19' W 094°48'0 0.0
2016-Apr-28 13:32N 29°19' W 094°48'0 0.0
2016-Apr-28 12:28N 29°19' W 094°48'1 1.3
2016-Apr-28 11:34N 29°19' W 094°47'1211.5
2016-Apr-28 10:33N 29°17' W 094°34'66418.5
2016-Apr-26 22:33N 20°37' W 086°57'8 8.4
2016-Apr-26 21:33N 20°29' W 086°59'0 0.0
2016-Apr-26 20:33N 20°29' W 086°59'0 0.0
2016-Apr-26 19:32N 20°29' W 086°59'0 0.0
2016-Apr-26 18:32N 20°29' W 086°59'0 0.0
2016-Apr-26 17:31N 20°29' W 086°59'0 0.0
2016-Apr-26 16:31N 20°29' W 086°59'0 0.0
2016-Apr-26 15:31N 20°29' W 086°59'0 0.0
2016-Apr-26 14:30N 20°29' W 086°59'0 0.0
2016-Apr-26 13:33N 20°29' W 086°59'2 2.2
2016-Apr-26 12:33N 20°31' W 086°60'1313.3
2016-Apr-26 11:33N 20°42' W 086°53'  
2016-Apr-23 22:33N 29°21' W 094°45'3 2.7
2016-Apr-23 21:25N 29°19' W 094°48'0 0.0
2016-Apr-23 20:21N 29°19' W 094°48'0 0.0
2016-Apr-23 19:33N 29°19' W 094°48'0 0.0
2016-Apr-23 18:20N 29°19' W 094°48'0 0.0
2016-Apr-23 16:20N 29°19' W 094°48'0 0.0
2016-Apr-23 15:07N 29°19' W 094°48'0 0.0
2016-Apr-23 14:31N 29°19' W 094°48'0 0.0
2016-Apr-23 13:33N 29°19' W 094°48'0 0.0
2016-Apr-23 12:33N 29°19' W 094°48'1 1.4
2016-Apr-23 11:33N 29°19' W 094°47'1010.3
2016-Apr-23 10:33N 29°17' W 094°35'1514.8
2016-Apr-23 09:33N 29°09' W 094°21'1717.1
2016-Apr-23 08:33N 28°59' W 094°05'  
Track history (hours):
 
Tides and Currents Weather Stations Pressure Air Temp Water Temp Dewpoint Dewpoint Depression Visibility Wind Speed Wind Dir Waves Ship Positions

Carnival Liberty

Last reported at 2016-May-02 23:33 UTC. Time now 2016-May-05 08:30 UTC.
Position N 29°21' W 094°45'.

Type: Ship. MMSI: 371083000.

Date/timePositionNaut miles runAvg speedWind from/ knotsBaromVisibWave heightAir tempDewpointWater temp
2016-May-02 23:33N 29°21' W 094°45'2 0.2
2016-May-02 14:31N 29°19' W 094°47'67217.2
2016-Apr-30 23:31N 20°42' W 086°53'1515.2
2016-Apr-30 22:33N 20°29' W 086°60'1 1.3
2016-Apr-30 21:33N 20°29' W 086°59'0 0.0
2016-Apr-30 20:33N 20°29' W 086°59'0 0.0
2016-Apr-30 19:32N 20°29' W 086°59'0 0.0
2016-Apr-30 18:32N 20°29' W 086°59'0 0.0
2016-Apr-30 17:31N 20°29' W 086°59'0 0.0
2016-Apr-30 16:31N 20°29' W 086°59'0 0.0
2016-Apr-30 15:31N 20°29' W 086°59'0 0.0
2016-Apr-30 14:33N 20°29' W 086°59'4 4.2
2016-Apr-30 13:33N 20°33' W 086°60'1615.2
2016-Apr-30 12:30N 20°46' W 086°50'48617.3
2016-Apr-29 08:22N 27°19' W 092°03'3419.0
2016-Apr-29 06:33N 27°45' W 092°28'5717.6
2016-Apr-29 03:20N 28°25' W 093°14'1418.5
2016-Apr-29 02:33N 28°33' W 093°27'2018.3
2016-Apr-29 01:28N 28°45' W 093°46'1718.3
2016-Apr-29 00:32N 28°55' W 094°01'2117.7
2016-Apr-28 23:19N 29°07' W 094°22'1416.6
2016-Apr-28 22:29N 29°15' W 094°35'1112.1
2016-Apr-28 21:33N 29°20' W 094°46'2 1.4
2016-Apr-28 20:10N 29°19' W 094°48'0 0.0
2016-Apr-28 19:25N 29°19' W 094°48'0 0.0
2016-Apr-28 17:30N 29°19' W 094°48'0 0.0
2016-Apr-28 16:33N 29°19' W 094°48'0 0.0
2016-Apr-28 15:32N 29°19' W 094°48'0 0.0
2016-Apr-28 14:32N 29°19' W 094°48'0 0.0
2016-Apr-28 13:32N 29°19' W 094°48'0 0.0
2016-Apr-28 12:28N 29°19' W 094°48'1 1.3
2016-Apr-28 11:34N 29°19' W 094°47'1211.5
2016-Apr-28 10:33N 29°17' W 094°34'66418.5
2016-Apr-26 22:33N 20°37' W 086°57'8 8.4
2016-Apr-26 21:33N 20°29' W 086°59'0 0.0
2016-Apr-26 20:33N 20°29' W 086°59'0 0.0
2016-Apr-26 19:32N 20°29' W 086°59'0 0.0
2016-Apr-26 18:32N 20°29' W 086°59'0 0.0
2016-Apr-26 17:31N 20°29' W 086°59'0 0.0
2016-Apr-26 16:31N 20°29' W 086°59'0 0.0
2016-Apr-26 15:31N 20°29' W 086°59'0 0.0
2016-Apr-26 14:30N 20°29' W 086°59'0 0.0
2016-Apr-26 13:33N 20°29' W 086°59'2 2.2
2016-Apr-26 12:33N 20°31' W 086°60'1313.3
2016-Apr-26 11:33N 20°42' W 086°53'  
2016-Apr-23 22:33N 29°21' W 094°45'3 2.7
2016-Apr-23 21:25N 29°19' W 094°48'0 0.0
2016-Apr-23 20:21N 29°19' W 094°48'0 0.0
2016-Apr-23 19:33N 29°19' W 094°48'0 0.0
2016-Apr-23 18:20N 29°19' W 094°48'0 0.0
2016-Apr-23 16:20N 29°19' W 094°48'0 0.0
2016-Apr-23 15:07N 29°19' W 094°48'0 0.0
2016-Apr-23 14:31N 29°19' W 094°48'0 0.0
2016-Apr-23 13:33N 29°19' W 094°48'0 0.0
2016-Apr-23 12:33N 29°19' W 094°48'1 1.4
2016-Apr-23 11:33N 29°19' W 094°47'1010.3
2016-Apr-23 10:33N 29°17' W 094°35'1514.8
2016-Apr-23 09:33N 29°09' W 094°21'1717.1
2016-Apr-23 08:33N 28°59' W 094°05'  

Dump ship's entire track history